createdAt,value
2023-03-15T00:00:17.773Z,0.50
2023-03-15T00:01:50.690Z,0.50
2023-03-15T00:03:24.734Z,0.50
2023-03-15T00:04:57.626Z,0.50
2023-03-15T00:06:33.989Z,0.50
2023-03-15T00:08:06.951Z,0.50
2023-03-15T00:09:39.983Z,0.50
2023-03-15T00:11:12.956Z,0.50
2023-03-15T00:12:45.783Z,0.50
2023-03-15T00:14:19.411Z,0.50
2023-03-15T00:15:56.895Z,0.50
2023-03-15T00:17:29.825Z,0.50
2023-03-15T00:19:02.698Z,0.60
2023-03-15T00:20:38.039Z,0.50
2023-03-15T00:22:11.272Z,0.50
2023-03-15T00:23:44.149Z,0.50
2023-03-15T00:25:17.154Z,0.50
2023-03-15T00:26:50.284Z,0.50
2023-03-15T00:28:23.817Z,0.50
2023-03-15T00:29:57.995Z,0.50
2023-03-15T00:31:31.177Z,0.50
2023-03-15T00:33:06.272Z,0.50
2023-03-15T00:34:39.295Z,0.50
2023-03-15T00:36:13.028Z,0.50
2023-03-15T00:37:46.476Z,0.50
2023-03-15T00:39:20.196Z,0.50
2023-03-15T00:40:53.111Z,0.50
2023-03-15T00:42:27.811Z,0.50
2023-03-15T00:44:01.042Z,0.50
2023-03-15T00:45:34.100Z,0.50
2023-03-15T00:47:07.032Z,0.50
2023-03-15T00:48:40.173Z,0.50
2023-03-15T00:50:13.111Z,0.50
2023-03-15T00:51:46.162Z,0.50
2023-03-15T00:53:19.037Z,0.50
2023-03-15T00:54:56.227Z,0.50
2023-03-15T00:56:32.040Z,0.50
2023-03-15T00:58:05.136Z,0.50
2023-03-15T00:59:38.613Z,0.50
2023-03-15T01:01:21.937Z,0.50
2023-03-15T01:02:55.925Z,0.50
2023-03-15T01:04:29.622Z,0.50
2023-03-15T01:06:10.367Z,0.50
2023-03-15T01:07:45.807Z,0.50
2023-03-15T01:09:18.712Z,0.50
2023-03-15T01:10:51.767Z,0.50
2023-03-15T01:12:24.989Z,0.50
2023-03-15T01:13:59.921Z,0.50
2023-03-15T01:15:33.043Z,0.50
2023-03-15T01:17:06.259Z,0.50
2023-03-15T01:18:41.962Z,0.50
2023-03-15T01:20:15.304Z,0.50
2023-03-15T01:21:48.490Z,0.50
2023-03-15T01:23:23.636Z,0.50
2023-03-15T01:24:56.777Z,0.50
2023-03-15T01:26:29.654Z,0.50
2023-03-15T01:28:02.617Z,0.50
2023-03-15T01:29:35.798Z,0.50
2023-03-15T01:31:20.877Z,0.50
2023-03-15T01:32:53.969Z,0.50
2023-03-15T01:34:26.972Z,0.50
2023-03-15T01:36:07.531Z,0.50
2023-03-15T01:37:42.821Z,0.50
2023-03-15T01:39:16.280Z,0.50
2023-03-15T01:40:51.533Z,0.50
2023-03-15T01:42:24.804Z,0.50
2023-03-15T01:43:58.041Z,0.50
2023-03-15T01:46:09.697Z,0.50
2023-03-15T01:47:47.495Z,0.50
2023-03-15T01:49:33.771Z,0.50
2023-03-15T01:51:32.797Z,0.50
2023-03-15T01:53:06.206Z,0.50
2023-03-15T01:54:45.416Z,0.50
2023-03-15T01:56:18.710Z,0.50
2023-03-15T01:57:56.564Z,0.50
2023-03-15T01:59:36.068Z,0.50
2023-03-15T02:01:10.722Z,0.50
2023-03-15T02:03:00.572Z,0.50
2023-03-15T02:04:58.715Z,0.50
2023-03-15T02:06:35.435Z,0.50
2023-03-15T02:08:09.577Z,0.50
2023-03-15T02:09:59.553Z,0.50
2023-03-15T02:11:34.737Z,0.50
2023-03-15T02:13:09.136Z,0.50
2023-03-15T02:14:42.642Z,0.50
2023-03-15T02:16:20.390Z,0.50
2023-03-15T02:17:59.736Z,0.50
2023-03-15T02:19:41.188Z,0.50
2023-03-15T02:21:28.544Z,0.50
2023-03-15T02:23:03.545Z,0.50
2023-03-15T02:25:15.223Z,0.50
2023-03-15T02:26:54.693Z,0.50
2023-03-15T02:28:28.230Z,0.50
2023-03-15T02:30:03.688Z,0.50
2023-03-15T02:31:38.233Z,0.50
2023-03-15T02:33:37.564Z,0.50
2023-03-15T02:35:10.656Z,0.50
2023-03-15T02:36:43.485Z,0.50
2023-03-15T02:38:16.620Z,0.50
2023-03-15T02:39:50.795Z,0.50
2023-03-15T02:41:36.905Z,0.50
2023-03-15T02:43:16.394Z,0.50
2023-03-15T02:44:51.132Z,0.40
2023-03-15T02:46:24.581Z,0.50
2023-03-15T02:47:58.230Z,0.50
2023-03-15T02:49:35.543Z,0.50
2023-03-15T02:51:16.747Z,0.50
2023-03-15T02:52:50.032Z,0.50
2023-03-15T02:54:22.889Z,0.50
2023-03-15T02:55:58.575Z,0.50
2023-03-15T02:57:32.011Z,0.50
2023-03-15T02:59:05.953Z,0.50
2023-03-15T03:00:39.692Z,0.50
2023-03-15T03:02:13.262Z,0.50
2023-03-15T03:03:48.794Z,0.50
2023-03-15T03:05:22.683Z,0.50
2023-03-15T03:06:55.574Z,0.50
2023-03-15T03:08:32.312Z,0.50
2023-03-15T03:10:06.997Z,0.47
2023-03-15T03:11:50.521Z,0.40
2023-03-15T03:13:24.117Z,0.50
2023-03-15T03:14:57.494Z,0.50
2023-03-15T03:16:32.457Z,0.40
2023-03-15T03:18:06.292Z,0.40
2023-03-15T03:19:39.654Z,0.50
2023-03-15T03:21:15.021Z,0.40
2023-03-15T03:22:49.647Z,0.50
2023-03-15T03:24:26.240Z,0.40
2023-03-15T03:26:01.792Z,0.40
2023-03-15T03:27:37.867Z,0.40
2023-03-15T03:29:14.769Z,0.40
2023-03-15T03:30:48.354Z,0.30
2023-03-15T03:32:22.166Z,0.40
2023-03-15T03:33:57.282Z,0.40
2023-03-15T03:35:33.095Z,0.40
2023-03-15T03:37:06.301Z,0.38
2023-03-15T03:38:58.561Z,0.40
2023-03-15T03:40:32.743Z,0.40
2023-03-15T03:42:06.007Z,0.40
2023-03-15T03:43:39.509Z,0.40
2023-03-15T03:45:13.707Z,0.40
2023-03-15T03:46:49.616Z,0.40
2023-03-15T03:48:23.344Z,0.40
2023-03-15T03:49:56.708Z,0.45
2023-03-15T03:51:31.039Z,0.30
2023-03-15T03:53:04.601Z,0.40
2023-03-15T03:54:40.276Z,0.40
2023-03-15T03:56:13.758Z,0.40
2023-03-15T03:57:46.750Z,0.43
2023-03-15T03:59:28.660Z,0.40
2023-03-15T04:01:07.964Z,0.40
2023-03-15T04:02:44.162Z,0.43
2023-03-15T04:04:19.685Z,0.40
2023-03-15T04:05:53.138Z,0.40
2023-03-15T04:07:28.926Z,0.40
2023-03-15T04:09:04.591Z,0.40
2023-03-15T04:10:46.054Z,0.40
2023-03-15T04:12:19.631Z,0.40
2023-03-15T04:13:54.106Z,0.40
2023-03-15T04:15:27.518Z,0.40
2023-03-15T04:17:03.996Z,0.40
2023-03-15T04:18:37.934Z,0.45
2023-03-15T04:20:13.186Z,0.40
2023-03-15T04:21:52.889Z,0.40
2023-03-15T04:23:31.955Z,0.40
2023-03-15T04:25:07.884Z,0.40
2023-03-15T04:27:14.943Z,0.40
2023-03-15T04:29:06.094Z,0.30
2023-03-15T04:31:15.051Z,0.40
2023-03-15T04:33:11.951Z,0.40
2023-03-15T04:34:59.780Z,0.30
2023-03-15T04:36:42.928Z,0.40
2023-03-15T04:38:49.060Z,0.30
2023-03-15T04:40:36.665Z,0.30
2023-03-15T04:42:28.620Z,0.28
2023-03-15T04:44:05.736Z,0.30
2023-03-15T04:46:00.247Z,0.30
2023-03-15T04:47:47.059Z,0.20
2023-03-15T04:49:45.507Z,0.30
2023-03-15T04:51:37.833Z,0.20
2023-03-15T04:53:33.843Z,0.20
2023-03-15T04:55:19.707Z,0.20
2023-03-15T04:57:17.675Z,0.20
2023-03-15T04:59:11.565Z,0.22
2023-03-15T05:00:59.112Z,0.20
2023-03-15T05:02:55.310Z,0.20
2023-03-15T05:06:32.389Z,0.30
2023-03-15T05:08:16.469Z,0.20
2023-03-15T05:10:07.694Z,0.30
2023-03-15T05:12:03.794Z,0.20
2023-03-15T05:14:03.351Z,0.20
2023-03-15T05:15:48.212Z,0.20
2023-03-15T05:17:47.775Z,0.20
2023-03-15T05:19:35.930Z,0.20
2023-03-15T05:21:24.727Z,0.20
2023-03-15T05:23:11.657Z,0.20
2023-03-15T05:25:24.682Z,0.20
2023-03-15T05:27:34.230Z,0.20
2023-03-15T05:29:27.528Z,0.20
2023-03-15T05:31:21.244Z,0.20
2023-03-15T05:33:20.539Z,0.20
2023-03-15T05:35:16.854Z,0.20
2023-03-15T05:37:19.478Z,0.20
2023-03-15T05:39:12.050Z,0.20
2023-03-15T05:41:03.448Z,0.20
2023-03-15T05:42:52.542Z,0.20
2023-03-15T05:46:37.863Z,0.20
2023-03-15T05:48:36.711Z,0.20
2023-03-15T05:50:19.290Z,0.25
2023-03-15T05:52:18.985Z,0.20
2023-03-15T05:53:57.998Z,0.20
2023-03-15T05:55:42.086Z,0.20
2023-03-15T05:57:41.628Z,0.22
2023-03-15T05:59:49.642Z,0.28
2023-03-15T06:01:40.928Z,0.20
2023-03-15T06:03:26.993Z,0.30
2023-03-15T06:05:07.865Z,0.22
2023-03-15T06:06:41.869Z,0.20
2023-03-15T06:08:16.698Z,0.20
2023-03-15T06:09:53.175Z,0.20
2023-03-15T06:11:26.477Z,0.20
2023-03-15T06:12:59.598Z,0.20
2023-03-15T06:14:32.610Z,0.20
2023-03-15T06:16:11.810Z,0.30
2023-03-15T06:17:49.527Z,0.20
2023-03-15T06:19:23.922Z,0.22
2023-03-15T06:20:59.732Z,0.20
2023-03-15T06:22:33.627Z,0.20
2023-03-15T06:24:13.503Z,0.20
2023-03-15T06:25:47.394Z,0.20
2023-03-15T06:27:22.395Z,0.20
2023-03-15T06:28:57.786Z,0.20
2023-03-15T06:30:31.690Z,0.20
2023-03-15T06:32:07.421Z,0.25
2023-03-15T06:33:43.092Z,0.30
2023-03-15T06:35:17.621Z,0.20
2023-03-15T06:36:52.810Z,0.20
2023-03-15T06:38:25.748Z,0.20
2023-03-15T06:39:58.714Z,0.28
2023-03-15T06:41:33.149Z,0.20
2023-03-15T06:43:20.172Z,0.20
2023-03-15T06:44:53.788Z,0.20
2023-03-15T06:46:28.212Z,0.20
2023-03-15T06:48:01.948Z,0.20
2023-03-15T06:49:35.952Z,0.20
2023-03-15T06:51:09.707Z,0.20
2023-03-15T06:52:43.099Z,0.20
2023-03-15T06:54:16.575Z,0.20
2023-03-15T06:55:51.078Z,0.30
2023-03-15T06:57:23.965Z,0.20
2023-03-15T07:00:29.796Z,0.30
2023-03-15T07:02:02.915Z,0.20
2023-03-15T07:03:35.797Z,0.30
2023-03-15T07:05:09.066Z,0.20
2023-03-15T07:06:42.635Z,0.20
2023-03-15T07:08:15.576Z,0.30
2023-03-15T07:09:48.798Z,0.28
2023-03-15T07:11:21.914Z,0.20
2023-03-15T07:12:55.330Z,0.30
2023-03-15T07:14:28.338Z,0.20
2023-03-15T07:16:01.367Z,0.20
2023-03-15T07:19:07.296Z,0.30
2023-03-15T07:20:40.187Z,0.30
2023-03-15T07:23:45.732Z,0.30
2023-03-15T07:25:24.333Z,0.20
2023-03-15T07:26:57.402Z,0.25
2023-03-15T07:28:30.443Z,0.20
2023-03-15T07:30:04.586Z,0.20
2023-03-15T07:31:37.812Z,0.30
2023-03-15T07:33:10.842Z,0.20
2023-03-15T07:34:44.092Z,0.30
2023-03-15T07:36:16.936Z,0.20
2023-03-15T07:39:23.708Z,0.25
2023-03-15T07:40:57.553Z,0.30
2023-03-15T07:42:30.461Z,0.30
2023-03-15T07:44:06.915Z,0.20
2023-03-15T07:45:40.135Z,0.20
2023-03-15T07:47:13.105Z,0.22
2023-03-15T07:50:21.303Z,0.20
2023-03-15T07:51:54.174Z,0.30
2023-03-15T07:53:27.289Z,0.20
2023-03-15T07:55:00.737Z,0.20
2023-03-15T07:56:34.205Z,0.20
2023-03-15T07:58:07.245Z,0.30
2023-03-15T07:59:40.441Z,0.20
2023-03-15T08:01:13.294Z,0.30
2023-03-15T08:04:19.386Z,0.30
2023-03-15T08:05:52.332Z,0.20
2023-03-15T08:08:58.289Z,0.25
2023-03-15T08:10:31.892Z,0.20
2023-03-15T08:12:04.879Z,0.20
2023-03-15T08:13:38.200Z,0.20
2023-03-15T08:15:16.006Z,0.20
2023-03-15T08:16:50.226Z,0.28
2023-03-15T08:18:23.354Z,0.20
2023-03-15T08:19:56.302Z,0.20
2023-03-15T08:23:02.998Z,0.25
2023-03-15T08:24:36.476Z,0.20
2023-03-15T08:26:09.805Z,0.20
2023-03-15T08:27:44.333Z,0.30
2023-03-15T08:29:17.710Z,0.20
2023-03-15T08:30:50.876Z,0.30
2023-03-15T08:32:24.032Z,0.30
2023-03-15T08:33:57.558Z,0.30
2023-03-15T08:35:32.282Z,0.20
2023-03-15T08:37:05.249Z,0.30
2023-03-15T08:40:11.835Z,0.20
2023-03-15T08:41:46.064Z,0.20
2023-03-15T08:43:19.156Z,0.30
2023-03-15T08:44:52.144Z,0.20
2023-03-15T08:46:26.365Z,0.30
2023-03-15T08:48:00.414Z,0.30
2023-03-15T08:49:33.843Z,0.30
2023-03-15T08:51:08.144Z,0.20
2023-03-15T08:52:42.360Z,0.30
2023-03-15T08:54:15.373Z,0.30
2023-03-15T08:57:26.288Z,0.20
2023-03-15T08:59:02.606Z,0.30
2023-03-15T09:00:35.757Z,0.30
2023-03-15T09:03:43.060Z,0.30
2023-03-15T09:05:17.103Z,0.30
2023-03-15T09:06:50.164Z,0.30
2023-03-15T09:08:25.730Z,0.30
2023-03-15T09:09:59.017Z,0.20
2023-03-15T09:11:32.210Z,0.20
2023-03-15T09:13:05.484Z,0.30
2023-03-15T09:14:38.644Z,0.30
2023-03-15T09:16:11.549Z,0.20
2023-03-15T09:17:45.078Z,0.20
2023-03-15T09:19:18.596Z,0.22
2023-03-15T09:20:51.980Z,0.30
2023-03-15T09:22:38.521Z,0.20
2023-03-15T09:24:12.237Z,0.20
2023-03-15T09:25:45.578Z,0.20
2023-03-15T09:27:21.821Z,0.30
2023-03-15T09:30:29.207Z,0.30
2023-03-15T09:32:02.376Z,0.20
2023-03-15T09:33:35.303Z,0.28
2023-03-15T09:35:10.803Z,0.20
2023-03-15T09:36:44.163Z,0.20
2023-03-15T09:38:18.237Z,0.30
2023-03-15T09:39:52.135Z,0.20
2023-03-15T09:41:48.811Z,0.20
2023-03-15T09:44:08.557Z,0.30
2023-03-15T09:46:03.057Z,0.20
2023-03-15T09:48:05.618Z,0.30
2023-03-15T09:49:56.809Z,0.20
2023-03-15T09:51:40.142Z,0.30
2023-03-15T09:53:17.449Z,0.30
2023-03-15T09:54:53.608Z,0.30
2023-03-15T09:56:41.655Z,0.30
2023-03-15T09:58:33.357Z,0.30
2023-03-15T10:00:12.186Z,0.20
2023-03-15T10:01:48.362Z,0.20
2023-03-15T10:03:47.322Z,0.20
2023-03-15T10:05:36.052Z,0.20
2023-03-15T10:07:14.827Z,0.30
2023-03-15T10:08:48.310Z,0.30
2023-03-15T10:10:34.297Z,0.30
2023-03-15T10:12:18.602Z,0.28
2023-03-15T10:14:03.231Z,0.30
2023-03-15T10:15:45.371Z,0.30
2023-03-15T10:17:41.755Z,0.20
2023-03-15T10:19:19.555Z,0.30
2023-03-15T10:21:01.691Z,0.30
2023-03-15T10:22:46.901Z,0.30
2023-03-15T10:24:31.885Z,0.20
2023-03-15T10:26:09.310Z,0.20
2023-03-15T10:27:54.686Z,0.30
2023-03-15T10:29:29.034Z,0.30
2023-03-15T10:31:25.602Z,0.30
2023-03-15T10:33:35.122Z,0.20
2023-03-15T10:35:15.467Z,0.30
2023-03-15T10:36:54.832Z,0.20
2023-03-15T10:38:28.365Z,0.30
2023-03-15T10:40:01.299Z,0.30
2023-03-15T10:41:46.421Z,0.20
2023-03-15T10:43:24.311Z,0.30
2023-03-15T10:44:59.027Z,0.20
2023-03-15T10:46:32.037Z,0.20
2023-03-15T10:48:05.209Z,0.30
2023-03-15T10:49:41.132Z,0.20
2023-03-15T10:51:32.466Z,0.30
2023-03-15T10:53:21.347Z,0.30
2023-03-15T10:54:58.793Z,0.30
2023-03-15T10:56:45.012Z,0.20
2023-03-15T10:58:31.744Z,0.30
2023-03-15T11:00:21.301Z,0.30
2023-03-15T11:02:14.841Z,0.30
2023-03-15T11:05:41.345Z,0.20
2023-03-15T11:07:14.386Z,0.30
2023-03-15T11:08:47.943Z,0.25
2023-03-15T11:10:26.770Z,0.30
2023-03-15T11:12:02.755Z,0.30
2023-03-15T11:13:40.702Z,0.20
2023-03-15T11:15:15.755Z,0.30
2023-03-15T11:16:59.559Z,0.28
2023-03-15T11:18:55.751Z,0.28
2023-03-15T11:20:39.248Z,0.30
2023-03-15T11:22:14.388Z,0.30
2023-03-15T11:23:50.280Z,0.20
2023-03-15T11:25:26.985Z,0.20
2023-03-15T11:27:02.748Z,0.30
2023-03-15T11:28:38.348Z,0.20
2023-03-15T11:30:16.409Z,0.30
2023-03-15T11:31:51.752Z,0.22
2023-03-15T11:33:38.045Z,0.30
2023-03-15T11:35:19.592Z,0.30
2023-03-15T11:37:07.987Z,0.30
2023-03-15T11:38:46.445Z,0.22
2023-03-15T11:40:23.768Z,0.30
2023-03-15T11:42:06.122Z,0.22
2023-03-15T11:43:58.048Z,0.20
2023-03-15T11:45:40.878Z,0.30
2023-03-15T11:47:43.790Z,0.25
2023-03-15T11:49:52.305Z,0.20
2023-03-15T11:51:25.348Z,0.30
2023-03-15T11:53:03.950Z,0.22
2023-03-15T11:54:37.260Z,0.20
2023-03-15T11:56:44.867Z,0.30
2023-03-15T11:58:45.467Z,0.25
2023-03-15T12:00:35.977Z,0.30
2023-03-15T12:02:14.313Z,0.20
2023-03-15T12:03:47.876Z,0.30
2023-03-15T12:05:48.805Z,0.30
2023-03-15T12:07:24.746Z,0.30
2023-03-15T12:08:57.862Z,0.30
2023-03-15T12:10:35.217Z,0.30
2023-03-15T12:12:26.676Z,0.30
2023-03-15T12:13:59.534Z,0.30
2023-03-15T12:17:29.880Z,0.20
2023-03-15T12:19:11.482Z,0.20
2023-03-15T12:20:57.677Z,0.20
2023-03-15T12:22:34.504Z,0.20
2023-03-15T12:24:16.285Z,0.30
2023-03-15T12:25:59.734Z,0.20
2023-03-15T12:29:15.631Z,0.30
2023-03-15T12:30:56.818Z,0.30
2023-03-15T12:32:30.794Z,0.30
2023-03-15T12:34:05.952Z,0.30
2023-03-15T12:35:42.232Z,0.30
2023-03-15T12:37:20.996Z,0.30
2023-03-15T12:39:04.582Z,0.30
2023-03-15T12:40:48.480Z,0.30
2023-03-15T12:42:31.591Z,0.30
2023-03-15T12:44:25.380Z,0.30
2023-03-15T12:45:58.801Z,0.30
2023-03-15T12:47:53.036Z,0.30
2023-03-15T12:49:43.511Z,0.30
2023-03-15T12:51:55.352Z,0.20
2023-03-15T12:53:37.747Z,0.30
2023-03-15T12:55:10.592Z,0.20
2023-03-15T12:56:57.753Z,0.30
2023-03-15T12:58:37.002Z,0.30
2023-03-15T13:00:23.061Z,0.30
2023-03-15T13:01:57.665Z,0.30
2023-03-15T13:03:35.043Z,0.30
2023-03-15T13:05:10.943Z,0.30
2023-03-15T13:07:16.296Z,0.30
2023-03-15T13:09:07.978Z,0.30
2023-03-15T13:10:52.913Z,0.30
2023-03-15T13:12:35.755Z,0.20
2023-03-15T13:14:36.325Z,0.30
2023-03-15T13:16:17.855Z,0.30
2023-03-15T13:17:52.147Z,0.30
2023-03-15T13:19:36.087Z,0.20
2023-03-15T13:21:25.895Z,0.30
2023-03-15T13:23:22.816Z,0.30
2023-03-15T13:25:00.141Z,0.30
2023-03-15T13:26:51.388Z,0.30
2023-03-15T13:28:37.513Z,0.30
2023-03-15T13:30:28.720Z,0.30
2023-03-15T13:32:13.763Z,0.30
2023-03-15T13:33:51.496Z,0.22
2023-03-15T13:35:24.462Z,0.30
2023-03-15T13:36:59.458Z,0.30
2023-03-15T13:38:44.292Z,0.30
2023-03-15T13:40:17.544Z,0.30
2023-03-15T13:41:58.902Z,0.28
2023-03-15T13:43:37.698Z,0.30
2023-03-15T13:45:16.193Z,0.30
2023-03-15T13:46:51.034Z,0.22
2023-03-15T13:48:24.727Z,0.30
2023-03-15T13:49:57.837Z,0.30
2023-03-15T13:51:33.820Z,0.40
2023-03-15T13:53:07.110Z,0.22
2023-03-15T13:54:41.386Z,0.30
2023-03-15T13:56:20.149Z,0.30
2023-03-15T13:57:59.553Z,0.30
2023-03-15T13:59:40.978Z,0.40
2023-03-15T14:01:16.725Z,0.30
2023-03-15T14:03:03.491Z,0.30
2023-03-15T14:04:38.523Z,0.30
2023-03-15T14:06:23.103Z,0.30
2023-03-15T14:07:58.865Z,0.30
2023-03-15T14:09:31.943Z,0.32
2023-03-15T14:11:37.622Z,0.30
2023-03-15T14:13:24.860Z,0.30
2023-03-15T14:15:00.012Z,0.30
2023-03-15T14:16:57.280Z,0.30
2023-03-15T14:18:39.137Z,0.40
2023-03-15T14:20:16.949Z,0.40
2023-03-15T14:21:59.037Z,0.30
2023-03-15T14:23:32.481Z,0.30
2023-03-15T14:25:21.566Z,0.40
2023-03-15T14:26:57.876Z,0.30
2023-03-15T14:28:32.814Z,0.30
2023-03-15T14:30:23.702Z,0.30
2023-03-15T14:32:01.710Z,0.30
2023-03-15T14:33:41.642Z,0.28
2023-03-15T14:35:29.656Z,0.30
2023-03-15T14:37:24.742Z,0.40
2023-03-15T14:38:59.114Z,0.40
2023-03-15T14:40:35.461Z,0.38
2023-03-15T14:42:12.318Z,0.40
2023-03-15T14:43:45.342Z,0.35
2023-03-15T14:45:22.410Z,0.38
2023-03-15T14:46:55.704Z,0.30
2023-03-15T14:48:30.542Z,0.40
2023-03-15T14:50:03.757Z,0.30
2023-03-15T14:51:36.913Z,0.40
2023-03-15T14:53:16.539Z,0.30
2023-03-15T14:54:51.014Z,0.40
2023-03-15T14:56:25.333Z,0.40
2023-03-15T14:57:58.545Z,0.40
2023-03-15T14:59:33.023Z,0.30
2023-03-15T15:01:06.223Z,0.40
2023-03-15T15:02:39.239Z,0.30
2023-03-15T15:04:13.130Z,0.40
2023-03-15T15:05:47.251Z,0.30
2023-03-15T15:07:20.883Z,0.30
2023-03-15T15:08:57.330Z,0.30
2023-03-15T15:10:32.150Z,0.35
2023-03-15T15:12:05.592Z,0.40
2023-03-15T15:13:39.597Z,0.30
2023-03-15T15:15:18.257Z,0.40
2023-03-15T15:16:52.348Z,0.40
2023-03-15T15:18:29.716Z,0.40
2023-03-15T15:20:02.669Z,0.30
2023-03-15T15:21:36.439Z,0.40
2023-03-15T15:23:24.986Z,0.40
2023-03-15T15:24:58.096Z,0.40
2023-03-15T15:26:32.510Z,0.40
2023-03-15T15:28:05.351Z,0.40
2023-03-15T15:29:38.542Z,0.40
2023-03-15T15:31:16.780Z,0.30
2023-03-15T15:32:50.021Z,0.40
2023-03-15T15:34:22.872Z,0.40
2023-03-15T15:35:58.213Z,0.40
2023-03-15T15:37:31.495Z,0.40
2023-03-15T15:39:07.131Z,0.40
2023-03-15T15:40:41.681Z,0.40
2023-03-15T15:42:14.795Z,0.40
2023-03-15T15:43:47.949Z,0.40
2023-03-15T15:45:21.462Z,0.40
2023-03-15T15:46:54.482Z,0.40
2023-03-15T15:48:27.405Z,0.30
2023-03-15T15:50:00.529Z,0.35
2023-03-15T15:51:38.887Z,0.40
2023-03-15T15:53:17.531Z,0.40
2023-03-15T15:54:50.585Z,0.32
2023-03-15T15:56:31.047Z,0.40
2023-03-15T15:58:05.909Z,0.30
2023-03-15T15:59:38.918Z,0.40
2023-03-15T16:01:17.109Z,0.40
2023-03-15T16:02:52.822Z,0.40
2023-03-15T16:04:25.974Z,0.40
2023-03-15T16:05:58.946Z,0.40
2023-03-15T16:07:32.166Z,0.30
2023-03-15T16:09:07.710Z,0.40
2023-03-15T16:10:40.689Z,0.40
2023-03-15T16:12:15.082Z,0.40
2023-03-15T16:13:52.389Z,0.40
2023-03-15T16:15:25.582Z,0.40
2023-03-15T16:16:58.445Z,0.40
2023-03-15T16:18:32.393Z,0.40
2023-03-15T16:20:09.771Z,0.45
2023-03-15T16:21:47.764Z,0.40
2023-03-15T16:23:25.109Z,0.50
2023-03-15T16:25:01.715Z,0.40
2023-03-15T16:26:37.462Z,0.40
2023-03-15T16:28:11.643Z,0.40
2023-03-15T16:29:49.324Z,0.30
2023-03-15T16:31:22.522Z,0.40
2023-03-15T16:32:55.766Z,0.40
2023-03-15T16:34:29.276Z,0.50
2023-03-15T16:36:03.231Z,0.40
2023-03-15T16:37:36.237Z,0.32
2023-03-15T16:39:14.995Z,0.40
2023-03-15T16:40:48.370Z,0.40
2023-03-15T16:42:22.652Z,0.40
2023-03-15T16:43:55.819Z,0.40
2023-03-15T16:45:29.485Z,0.47
2023-03-15T16:47:02.867Z,0.40
2023-03-15T16:48:35.755Z,0.40
2023-03-15T16:50:08.970Z,0.40
2023-03-15T16:51:51.674Z,0.47
2023-03-15T16:53:25.619Z,0.40
2023-03-15T16:54:59.743Z,0.40
2023-03-15T16:56:35.867Z,0.40
2023-03-15T16:58:20.329Z,0.40
2023-03-15T16:59:53.883Z,0.40
2023-03-15T17:01:27.160Z,0.40
2023-03-15T17:03:01.848Z,0.40
2023-03-15T17:04:35.007Z,0.30
2023-03-15T17:06:20.401Z,0.40
2023-03-15T17:07:55.490Z,0.40
2023-03-15T17:09:29.132Z,0.40
2023-03-15T17:11:02.559Z,0.40
2023-03-15T17:12:37.356Z,0.40
2023-03-15T17:14:18.074Z,0.40
2023-03-15T17:15:51.322Z,0.40
2023-03-15T17:17:27.727Z,0.40
2023-03-15T17:19:01.881Z,0.40
2023-03-15T17:20:34.990Z,0.43
2023-03-15T17:22:08.096Z,0.40
2023-03-15T17:23:41.497Z,0.40
2023-03-15T17:25:15.457Z,0.40
2023-03-15T17:26:49.024Z,0.40
2023-03-15T17:28:22.033Z,0.40
2023-03-15T17:29:55.275Z,0.40
2023-03-15T17:31:30.917Z,0.40
2023-03-15T17:33:05.095Z,0.40
2023-03-15T17:34:38.598Z,0.40
2023-03-15T17:36:22.670Z,0.40
2023-03-15T17:37:56.502Z,0.40
2023-03-15T17:39:30.501Z,0.40
2023-03-15T17:41:03.451Z,0.40
2023-03-15T17:42:36.790Z,0.43
2023-03-15T17:44:11.420Z,0.40
2023-03-15T17:45:44.554Z,0.40
2023-03-15T17:47:17.656Z,0.50
2023-03-15T17:48:50.872Z,0.40
2023-03-15T17:50:27.413Z,0.40
2023-03-15T17:52:02.188Z,0.45
2023-03-15T17:53:35.584Z,0.40
2023-03-15T17:55:16.421Z,0.40
2023-03-15T17:56:49.617Z,0.40
2023-03-15T17:58:24.910Z,0.40
2023-03-15T17:59:58.071Z,0.50
2023-03-15T18:01:32.592Z,0.40
2023-03-15T18:03:08.384Z,0.45
2023-03-15T18:04:41.766Z,0.40
2023-03-15T18:06:16.105Z,0.40
2023-03-15T18:07:58.782Z,0.40
2023-03-15T18:09:33.465Z,0.40
2023-03-15T18:11:22.943Z,0.40
2023-03-15T18:12:56.327Z,0.50
2023-03-15T18:14:31.283Z,0.45
2023-03-15T18:16:05.079Z,0.40
2023-03-15T18:17:39.396Z,0.40
2023-03-15T18:19:21.870Z,0.50
2023-03-15T18:20:58.987Z,0.40
2023-03-15T18:22:33.175Z,0.45
2023-03-15T18:24:07.077Z,0.45
2023-03-15T18:25:46.739Z,0.40
2023-03-15T18:27:20.754Z,0.40
2023-03-15T18:28:53.908Z,0.40
2023-03-15T18:30:29.723Z,0.40
2023-03-15T18:32:03.997Z,0.40
2023-03-15T18:33:37.731Z,0.50
2023-03-15T18:35:32.221Z,0.40
2023-03-15T18:37:06.014Z,0.40
2023-03-15T18:38:39.828Z,0.50
2023-03-15T18:40:15.181Z,0.50
2023-03-15T18:41:47.958Z,0.50
2023-03-15T18:43:20.939Z,0.50
2023-03-15T18:44:53.975Z,0.50
2023-03-15T18:46:27.391Z,0.50
2023-03-15T18:48:00.806Z,0.40
2023-03-15T18:49:33.905Z,0.40
2023-03-15T18:51:09.404Z,0.50
2023-03-15T18:52:43.351Z,0.50
2023-03-15T18:54:16.223Z,0.50
2023-03-15T18:55:49.991Z,0.50
2023-03-15T18:57:22.953Z,0.40
2023-03-15T18:58:56.165Z,0.40
2023-03-15T19:00:32.874Z,0.40
2023-03-15T19:02:06.635Z,0.50
2023-03-15T19:03:39.996Z,0.40
2023-03-15T19:05:15.027Z,0.40
2023-03-15T19:06:47.992Z,0.50
2023-03-15T19:08:21.059Z,0.50
2023-03-15T19:09:54.323Z,0.40
2023-03-15T19:11:31.685Z,0.50
2023-03-15T19:13:05.049Z,0.43
2023-03-15T19:14:38.343Z,0.40
2023-03-15T19:16:12.000Z,0.50
2023-03-15T19:17:46.097Z,0.40
2023-03-15T19:19:18.994Z,0.45
2023-03-15T19:20:53.581Z,0.50
2023-03-15T19:22:29.393Z,0.50
2023-03-15T19:24:02.657Z,0.50
2023-03-15T19:25:36.038Z,0.50
2023-03-15T19:27:09.223Z,0.40
2023-03-15T19:28:42.273Z,0.50
2023-03-15T19:30:21.205Z,0.50
2023-03-15T19:31:54.399Z,0.43
2023-03-15T19:33:27.726Z,0.40
2023-03-15T19:35:01.192Z,0.40
2023-03-15T19:36:34.329Z,0.40
2023-03-15T19:38:07.523Z,0.40
2023-03-15T19:39:41.026Z,0.40
2023-03-15T19:41:14.103Z,0.45
2023-03-15T19:42:48.881Z,0.50
2023-03-15T19:44:22.780Z,0.50
2023-03-15T19:45:56.036Z,0.40
2023-03-15T19:47:28.969Z,0.50
2023-03-15T19:50:35.759Z,0.40
2023-03-15T19:52:09.162Z,0.50
2023-03-15T19:53:42.310Z,0.50
2023-03-15T19:55:17.864Z,0.50
2023-03-15T19:56:51.094Z,0.40
2023-03-15T19:58:24.273Z,0.40
2023-03-15T19:59:57.393Z,0.40
2023-03-15T20:01:30.450Z,0.40
2023-03-15T20:03:03.718Z,0.45
2023-03-15T20:04:36.991Z,0.45
2023-03-15T20:06:15.192Z,0.40
2023-03-15T20:07:51.431Z,0.45
2023-03-15T20:09:24.536Z,0.40
2023-03-15T20:11:02.783Z,0.50
2023-03-15T20:12:36.876Z,0.47
2023-03-15T20:14:09.888Z,0.50
2023-03-15T20:15:43.306Z,0.50
2023-03-15T20:17:16.717Z,0.50
2023-03-15T20:18:55.554Z,0.50
2023-03-15T20:20:28.574Z,0.43
2023-03-15T20:22:01.557Z,0.40
2023-03-15T20:23:36.279Z,0.47
2023-03-15T20:25:11.204Z,0.40
2023-03-15T20:26:45.569Z,0.50
2023-03-15T20:28:19.421Z,0.50
2023-03-15T20:29:52.521Z,0.50
2023-03-15T20:31:25.735Z,0.40
2023-03-15T20:32:59.054Z,0.40
2023-03-15T20:34:32.438Z,0.50
2023-03-15T20:36:06.607Z,0.50
2023-03-15T20:37:43.201Z,0.50
2023-03-15T20:39:18.566Z,0.50
2023-03-15T20:40:55.963Z,0.50
2023-03-15T20:42:29.003Z,0.50
2023-03-15T20:44:01.934Z,0.40
2023-03-15T20:45:35.075Z,0.50
2023-03-15T20:47:08.018Z,0.50
2023-03-15T20:48:41.911Z,0.38
2023-03-15T20:50:14.998Z,0.50
2023-03-15T20:51:48.087Z,0.50
2023-03-15T20:53:21.599Z,0.40
2023-03-15T20:54:54.646Z,0.50
2023-03-15T20:56:28.197Z,0.40
2023-03-15T20:58:01.257Z,0.50
2023-03-15T20:59:35.440Z,0.50
2023-03-15T21:01:11.636Z,0.50
2023-03-15T21:02:46.117Z,0.50
2023-03-15T21:04:23.894Z,0.50
2023-03-15T21:05:57.265Z,0.50
2023-03-15T21:07:30.666Z,0.50
2023-03-15T21:09:04.307Z,0.40
2023-03-15T21:10:38.788Z,0.50
2023-03-15T21:12:12.013Z,0.50
2023-03-15T21:13:45.728Z,0.40
2023-03-15T21:15:19.396Z,0.50
2023-03-15T21:16:55.378Z,0.40
2023-03-15T21:18:33.637Z,0.47
2023-03-15T21:20:07.776Z,0.40
2023-03-15T21:21:43.697Z,0.50
2023-03-15T21:23:17.259Z,0.40
2023-03-15T21:24:55.897Z,0.40
2023-03-15T21:26:29.416Z,0.40
2023-03-15T21:28:02.788Z,0.50
2023-03-15T21:29:37.934Z,0.50
2023-03-15T21:31:11.608Z,0.50
2023-03-15T21:32:45.326Z,0.50
2023-03-15T21:34:18.764Z,0.50
2023-03-15T21:35:52.375Z,0.40
2023-03-15T21:37:25.462Z,0.50
2023-03-15T21:38:58.737Z,0.50
2023-03-15T21:40:31.922Z,0.50
2023-03-15T21:42:06.295Z,0.50
2023-03-15T21:43:39.306Z,0.50
2023-03-15T21:45:13.022Z,0.47
2023-03-15T21:46:46.577Z,0.50
2023-03-15T21:48:19.903Z,0.43
2023-03-15T21:49:54.396Z,0.50
2023-03-15T21:51:28.131Z,0.50
2023-03-15T21:53:02.036Z,0.50
2023-03-15T21:54:34.921Z,0.40
2023-03-15T21:56:08.498Z,0.50
2023-03-15T21:57:42.376Z,0.50
2023-03-15T21:59:15.227Z,0.50
2023-03-15T22:00:48.273Z,0.47
2023-03-15T22:02:22.206Z,0.40
2023-03-15T22:03:55.265Z,0.50
2023-03-15T22:05:28.098Z,0.47
2023-03-15T22:07:01.464Z,0.50
2023-03-15T22:08:34.556Z,0.50
2023-03-15T22:10:10.167Z,0.40
2023-03-15T22:11:43.076Z,0.40